createdAt,value
2022-11-28T00:00:15.535Z,1018.42
2022-11-28T00:00:47.402Z,1018.42
2022-11-28T00:01:19.752Z,1018.62
2022-11-28T00:01:42.855Z,1018.42
2022-11-28T00:02:05.259Z,1018.42
2022-11-28T00:02:40.102Z,1018.42
2022-11-28T00:03:11.593Z,1018.62
2022-11-28T00:03:43.442Z,1018.62
2022-11-28T00:04:15.241Z,1018.52
2022-11-28T00:04:47.420Z,1018.52
2022-11-28T00:05:19.599Z,1018.52
2022-11-28T00:05:46.852Z,1018.42
2022-11-28T00:06:04.785Z,1018.42
2022-11-28T00:06:39.861Z,1018.42
2022-11-28T00:07:11.858Z,1018.32
2022-11-28T00:07:43.433Z,1018.32
2022-11-28T00:08:15.327Z,1018.62
2022-11-28T00:08:47.306Z,1018.62
2022-11-28T00:09:19.334Z,1018.42
2022-11-28T00:09:42.027Z,1018.12
2022-11-28T00:10:04.501Z,1018.12
2022-11-28T00:10:39.626Z,1018.12
2022-11-28T00:11:11.405Z,1018.32
2022-11-28T00:11:43.434Z,1018.32
2022-11-28T00:12:15.911Z,1018.42
2022-11-28T00:12:47.497Z,1018.42
2022-11-28T00:13:19.422Z,1018.01
2022-11-28T00:13:42.541Z,1018.01
2022-11-28T00:14:06.209Z,1018.01
2022-11-28T00:14:39.558Z,1018.01
2022-11-28T00:15:11.460Z,1018.22
2022-11-28T00:15:43.462Z,1018.22
2022-11-28T00:16:15.423Z,1018.22
2022-11-28T00:16:47.391Z,1018.22
2022-11-28T00:17:19.348Z,1018.12
2022-11-28T00:17:42.004Z,1018.12
2022-11-28T00:18:04.469Z,1018.12
2022-11-28T00:18:39.948Z,1018.12
2022-11-28T00:19:11.444Z,1018.22
2022-11-28T00:19:43.520Z,1018.22
2022-11-28T00:20:15.439Z,1018.22
2022-11-28T00:20:47.308Z,1018.22
2022-11-28T00:21:19.523Z,1018.32
2022-11-28T00:21:43.523Z,1018.01
2022-11-28T00:22:05.571Z,1018.01
2022-11-28T00:22:39.429Z,1018.01
2022-11-28T00:23:11.467Z,1017.91
2022-11-28T00:23:43.334Z,1017.91
2022-11-28T00:24:15.567Z,1018.12
2022-11-28T00:24:47.407Z,1018.12
2022-11-28T00:25:19.372Z,1018.22
2022-11-28T00:25:42.047Z,1018.12
2022-11-28T00:26:04.684Z,1018.12
2022-11-28T00:26:39.580Z,1018.12
2022-11-28T00:27:11.562Z,1018.32
2022-11-28T00:27:43.765Z,1018.32
2022-11-28T00:28:15.620Z,1018.22
2022-11-28T00:28:47.437Z,1018.22
2022-11-28T00:29:19.427Z,1018.22
2022-11-28T00:29:42.716Z,1018.12
2022-11-28T00:30:04.724Z,1018.12
2022-11-28T00:30:39.679Z,1018.12
2022-11-28T00:31:11.545Z,1018.12
2022-11-28T00:31:43.540Z,1018.12
2022-11-28T00:32:15.378Z,1018.12
2022-11-28T00:32:47.433Z,1018.12
2022-11-28T00:33:19.639Z,1018.22
2022-11-28T00:33:42.349Z,1017.91
2022-11-28T00:34:04.918Z,1017.91
2022-11-28T00:34:39.489Z,1017.91
2022-11-28T00:35:11.407Z,1018.01
2022-11-28T00:35:43.312Z,1018.01
2022-11-28T00:36:15.419Z,1018.12
2022-11-28T00:36:47.365Z,1018.12
2022-11-28T00:37:19.506Z,1018.12
2022-11-28T00:37:42.108Z,1018.12
2022-11-28T00:38:04.490Z,1018.12
2022-11-28T00:38:39.363Z,1018.12
2022-11-28T00:39:11.473Z,1018.12
2022-11-28T00:39:43.758Z,1018.12
2022-11-28T00:40:15.425Z,1018.12
2022-11-28T00:40:47.286Z,1018.12
2022-11-28T00:41:19.465Z,1017.71
2022-11-28T00:41:42.344Z,1017.91
2022-11-28T00:42:04.549Z,1017.91
2022-11-28T00:42:39.409Z,1017.91
2022-11-28T00:43:11.326Z,1018.12
2022-11-28T00:43:43.947Z,1018.12
2022-11-28T00:44:15.465Z,1017.91
2022-11-28T00:44:47.453Z,1017.91
2022-11-28T00:45:19.637Z,1018.12
2022-11-28T00:45:43.605Z,1018.01
2022-11-28T00:46:05.659Z,1018.01
2022-11-28T00:46:39.421Z,1018.01
2022-11-28T00:47:11.363Z,1017.71
2022-11-28T00:47:43.921Z,1017.71
2022-11-28T00:48:15.398Z,1017.91
2022-11-28T00:48:47.631Z,1017.91
2022-11-28T00:49:19.375Z,1018.01
2022-11-28T00:49:42.958Z,1017.91
2022-11-28T00:50:05.268Z,1017.91
2022-11-28T00:50:39.314Z,1017.91
2022-11-28T00:51:11.576Z,1017.81
2022-11-28T00:51:43.553Z,1017.81
2022-11-28T00:52:15.511Z,1017.91
2022-11-28T00:52:47.470Z,1017.91
2022-11-28T00:53:19.328Z,1017.81
2022-11-28T00:53:42.151Z,1017.71
2022-11-28T00:54:04.401Z,1017.71
2022-11-28T00:54:39.791Z,1017.71
2022-11-28T00:55:11.689Z,1017.61
2022-11-28T00:55:43.312Z,1017.61
2022-11-28T00:56:15.681Z,1017.81
2022-11-28T00:56:48.007Z,1017.81
2022-11-28T00:57:19.552Z,1017.71
2022-11-28T00:57:42.198Z,1017.54
2022-11-28T00:58:04.783Z,1017.54
2022-11-28T00:58:39.355Z,1017.54
2022-11-28T00:59:11.407Z,1017.71
2022-11-28T00:59:43.386Z,1017.71
2022-11-28T01:00:15.431Z,1017.81
2022-11-28T01:00:47.468Z,1017.81
2022-11-28T01:01:19.521Z,1017.81
2022-11-28T01:01:42.596Z,1017.81
2022-11-28T01:02:04.840Z,1017.81
2022-11-28T01:02:41.084Z,1017.81
2022-11-28T01:03:11.467Z,1017.91
2022-11-28T01:03:43.470Z,1017.91
2022-11-28T01:04:15.291Z,1017.61
2022-11-28T01:04:47.299Z,1017.61
2022-11-28T01:05:19.478Z,1017.61
2022-11-28T01:05:43.441Z,1017.91
2022-11-28T01:06:05.764Z,1017.91
2022-11-28T01:06:39.332Z,1017.91
2022-11-28T01:07:11.402Z,1017.81
2022-11-28T01:07:43.343Z,1017.81
2022-11-28T01:08:16.869Z,1017.71
2022-11-28T01:08:47.527Z,1017.71
2022-11-28T01:09:19.429Z,1017.61
2022-11-28T01:09:42.070Z,1017.81
2022-11-28T01:10:04.471Z,1017.81
2022-11-28T01:10:39.631Z,1017.81
2022-11-28T01:11:11.437Z,1017.91
2022-11-28T01:11:43.402Z,1017.91
2022-11-28T01:12:15.976Z,1017.81
2022-11-28T01:12:47.298Z,1017.81
2022-11-28T01:13:19.458Z,1018.01
2022-11-28T01:13:42.427Z,1017.81
2022-11-28T01:14:04.653Z,1017.81
2022-11-28T01:14:39.963Z,1017.81
2022-11-28T01:15:11.335Z,1017.71
2022-11-28T01:15:43.420Z,1017.71
2022-11-28T01:16:15.379Z,1017.61
2022-11-28T01:16:47.642Z,1017.61
2022-11-28T01:17:19.273Z,1017.54
2022-11-28T01:17:42.293Z,1017.71
2022-11-28T01:18:04.577Z,1017.71
2022-11-28T01:18:39.483Z,1017.71
2022-11-28T01:19:11.409Z,1017.71
2022-11-28T01:19:37.652Z,1017.71
2022-11-28T01:20:16.508Z,1017.61
2022-11-28T01:20:47.522Z,1017.61
2022-11-28T01:21:19.494Z,1017.61
2022-11-28T01:21:42.339Z,1017.54
2022-11-28T01:22:04.844Z,1017.54
2022-11-28T01:22:39.939Z,1017.54
2022-11-28T01:23:11.337Z,1017.54
2022-11-28T01:23:43.742Z,1017.54
2022-11-28T01:24:15.442Z,1017.71
2022-11-28T01:24:49.089Z,1017.71
2022-11-28T01:25:20.165Z,1017.61
2022-11-28T01:25:43.400Z,1017.81
2022-11-28T01:26:05.481Z,1017.81
2022-11-28T01:26:39.938Z,1017.81
2022-11-28T01:27:11.807Z,1017.71
2022-11-28T01:27:43.617Z,1017.71
2022-11-28T01:28:15.666Z,1017.54
2022-11-28T01:28:50.965Z,1017.54
2022-11-28T01:29:25.343Z,1017.44
2022-11-28T01:29:42.749Z,1017.54
2022-11-28T01:30:05.111Z,1017.54
2022-11-28T01:30:40.815Z,1017.54
2022-11-28T01:31:11.558Z,1017.61
2022-11-28T01:31:44.498Z,1017.61
2022-11-28T01:32:15.344Z,1017.81
2022-11-28T01:32:47.498Z,1017.81
2022-11-28T01:33:20.889Z,1017.61
2022-11-28T01:33:42.040Z,1017.61
2022-11-28T01:34:04.963Z,1017.61
2022-11-28T01:34:39.530Z,1017.61
2022-11-28T01:35:11.436Z,1017.61
2022-11-28T01:35:43.431Z,1017.61
2022-11-28T01:36:15.502Z,1017.71
2022-11-28T01:36:47.385Z,1017.71
2022-11-28T01:37:19.414Z,1017.54
2022-11-28T01:37:42.070Z,1017.54
2022-11-28T01:38:04.630Z,1017.54
2022-11-28T01:38:39.477Z,1017.54
2022-11-28T01:39:11.846Z,1017.61
2022-11-28T01:39:44.484Z,1017.61
2022-11-28T01:40:15.536Z,1017.61
2022-11-28T01:40:47.720Z,1017.61
2022-11-28T01:41:19.384Z,1017.34
2022-11-28T01:41:42.099Z,1017.61
2022-11-28T01:42:04.903Z,1017.61
2022-11-28T01:42:39.603Z,1017.61
2022-11-28T01:43:12.065Z,1017.44
2022-11-28T01:43:44.343Z,1017.44
2022-11-28T01:44:17.000Z,1017.54
2022-11-28T01:44:47.910Z,1017.54
2022-11-28T01:45:20.763Z,1017.44
2022-11-28T01:45:43.440Z,1017.34
2022-11-28T01:46:05.829Z,1017.34
2022-11-28T01:46:40.374Z,1017.34
2022-11-28T01:47:11.912Z,1017.54
2022-11-28T01:47:43.481Z,1017.54
2022-11-28T01:48:15.244Z,1017.44
2022-11-28T01:48:47.657Z,1017.44
2022-11-28T01:49:19.441Z,1017.44
2022-11-28T01:49:42.281Z,1017.44
2022-11-28T01:50:04.900Z,1017.44
2022-11-28T01:50:39.992Z,1017.44
2022-11-28T01:51:11.881Z,1017.54
2022-11-28T01:51:43.373Z,1017.54
2022-11-28T01:52:15.403Z,1017.44
2022-11-28T01:52:47.859Z,1017.44
2022-11-28T01:53:19.915Z,1017.44
2022-11-28T01:53:42.701Z,1017.34
2022-11-28T01:54:05.001Z,1017.34
2022-11-28T01:54:40.871Z,1017.34
2022-11-28T01:55:13.020Z,1017.24
2022-11-28T01:55:43.463Z,1017.24
2022-11-28T01:56:15.327Z,1017.34
2022-11-28T01:56:47.576Z,1017.34
2022-11-28T01:57:19.442Z,1017.44
2022-11-28T01:57:42.510Z,1017.34
2022-11-28T01:58:05.338Z,1017.34
2022-11-28T01:58:39.803Z,1017.34
2022-11-28T01:59:11.792Z,1017.34
2022-11-28T01:59:43.272Z,1017.34
2022-11-28T02:00:15.686Z,1017.34
2022-11-28T02:00:47.494Z,1017.34
2022-11-28T02:01:20.265Z,1017.24
2022-11-28T02:01:43.281Z,1017.24
2022-11-28T02:02:05.450Z,1017.24
2022-11-28T02:02:40.484Z,1017.24
2022-11-28T02:03:11.512Z,1017.13
2022-11-28T02:03:45.282Z,1017.24
2022-11-28T02:04:15.479Z,1017.24
2022-11-28T02:04:48.464Z,1017.24
2022-11-28T02:05:19.847Z,1017.34
2022-11-28T02:05:42.621Z,1017.34
2022-11-28T02:06:05.182Z,1017.34
2022-11-28T02:06:39.399Z,1017.34
2022-11-28T02:07:11.888Z,1017.24
2022-11-28T02:07:43.937Z,1017.24
2022-11-28T02:08:16.044Z,1017.24
2022-11-28T02:08:47.241Z,1017.24
2022-11-28T02:09:21.036Z,1017.13
2022-11-28T02:09:45.318Z,1017.03
2022-11-28T02:10:06.713Z,1017.03
2022-11-28T02:10:39.755Z,1017.03
2022-11-28T02:11:12.070Z,1016.83
2022-11-28T02:11:43.986Z,1016.83
2022-11-28T02:12:17.247Z,1017.24
2022-11-28T02:12:51.675Z,1017.03
2022-11-28T02:13:14.519Z,1017.03
2022-11-28T02:13:47.111Z,1017.03
2022-11-28T02:14:23.420Z,1017.03
2022-11-28T02:14:46.195Z,1016.93
2022-11-28T02:15:08.792Z,1016.93
2022-11-28T02:15:43.489Z,1016.93
2022-11-28T02:16:15.488Z,1016.93
2022-11-28T02:16:47.359Z,1016.93
2022-11-28T02:17:19.376Z,1016.93
2022-11-28T02:17:42.622Z,1016.83
2022-11-28T02:18:05.010Z,1016.83
2022-11-28T02:18:39.941Z,1016.83
2022-11-28T02:19:12.750Z,1016.83
2022-11-28T02:19:43.431Z,1016.83
2022-11-28T02:20:15.366Z,1016.93
2022-11-28T02:20:47.281Z,1016.93
2022-11-28T02:21:22.852Z,1016.93
2022-11-28T02:21:42.341Z,1017.03
2022-11-28T02:22:04.703Z,1017.03
2022-11-28T02:22:39.840Z,1017.03
2022-11-28T02:23:11.210Z,1017.03
2022-11-28T02:23:43.354Z,1017.03
2022-11-28T02:24:15.480Z,1016.83
2022-11-28T02:24:47.248Z,1016.83
2022-11-28T02:25:19.379Z,1016.93
2022-11-28T02:25:42.245Z,1016.93
2022-11-28T02:26:04.665Z,1016.93
2022-11-28T02:26:39.288Z,1016.93
2022-11-28T02:27:11.459Z,1017.03
2022-11-28T02:27:43.298Z,1017.03
2022-11-28T02:28:15.383Z,1016.93
2022-11-28T02:28:47.482Z,1016.93
2022-11-28T02:29:19.540Z,1017.03
2022-11-28T02:29:43.542Z,1017.03
2022-11-28T02:30:04.678Z,1017.03
2022-11-28T02:30:39.447Z,1017.03
2022-11-28T02:31:11.451Z,1016.73
2022-11-28T02:31:43.516Z,1016.73
2022-11-28T02:32:15.452Z,1017.03
2022-11-28T02:32:47.346Z,1017.03
2022-11-28T02:33:19.334Z,1016.93
2022-11-28T02:33:41.895Z,1016.83
2022-11-28T02:34:04.211Z,1016.83
2022-11-28T02:34:43.067Z,1016.83
2022-11-28T02:35:11.250Z,1017.03
2022-11-28T02:35:43.379Z,1017.03
2022-11-28T02:36:15.269Z,1016.83
2022-11-28T02:36:47.269Z,1016.83
2022-11-28T02:37:19.354Z,1017.13
2022-11-28T02:37:43.136Z,1016.93
2022-11-28T02:38:05.351Z,1016.93
2022-11-28T02:38:40.774Z,1016.93
2022-11-28T02:39:07.838Z,1016.93
2022-11-28T02:39:44.120Z,1016.93
2022-11-28T02:40:15.856Z,1017.13
2022-11-28T02:40:47.432Z,1017.13
2022-11-28T02:41:19.383Z,1017.13
2022-11-28T02:41:42.325Z,1016.93
2022-11-28T02:42:05.580Z,1016.93
2022-11-28T02:42:39.469Z,1016.93
2022-11-28T02:43:11.374Z,1017.03
2022-11-28T02:43:43.659Z,1017.03
2022-11-28T02:44:15.833Z,1016.93
2022-11-28T02:44:47.244Z,1016.93
2022-11-28T02:45:19.601Z,1017.03
2022-11-28T02:45:42.708Z,1017.24
2022-11-28T02:46:04.918Z,1017.24
2022-11-28T02:46:40.309Z,1017.24
2022-11-28T02:47:11.391Z,1017.13
2022-11-28T02:47:43.922Z,1017.13
2022-11-28T02:48:15.354Z,1016.93
2022-11-28T02:48:52.866Z,1016.93
2022-11-28T02:49:19.617Z,1016.93
2022-11-28T02:49:42.438Z,1017.03
2022-11-28T02:50:05.739Z,1017.03
2022-11-28T02:50:39.997Z,1017.03
2022-11-28T02:51:12.279Z,1016.93
2022-11-28T02:51:43.672Z,1016.93
2022-11-28T02:52:16.058Z,1016.93
2022-11-28T02:52:47.726Z,1016.93
2022-11-28T02:53:19.499Z,1017.03
2022-11-28T02:53:42.238Z,1016.93
2022-11-28T02:54:04.819Z,1016.93
2022-11-28T02:54:39.940Z,1016.93
2022-11-28T02:55:11.560Z,1016.93
2022-11-28T02:55:43.566Z,1016.93
2022-11-28T02:56:15.869Z,1017.13
2022-11-28T02:56:48.766Z,1017.13
2022-11-28T02:57:19.363Z,1016.83
2022-11-28T02:57:41.859Z,1017.03
2022-11-28T02:58:04.405Z,1017.03
2022-11-28T02:58:39.503Z,1017.03
2022-11-28T02:59:11.678Z,1016.83
2022-11-28T02:59:43.426Z,1016.83
2022-11-28T03:00:17.845Z,1017.03
2022-11-28T03:00:47.833Z,1017.03
2022-11-28T03:01:20.281Z,1016.93
2022-11-28T03:01:49.482Z,1016.93
2022-11-28T03:02:05.609Z,1016.93
2022-11-28T03:02:39.415Z,1016.93
2022-11-28T03:03:11.845Z,1016.83
2022-11-28T03:03:43.647Z,1016.83
2022-11-28T03:04:15.667Z,1016.93
2022-11-28T03:04:48.425Z,1016.93
2022-11-28T03:05:21.979Z,1016.83
2022-11-28T03:05:45.979Z,1016.73
2022-11-28T03:06:07.232Z,1016.73
2022-11-28T03:06:39.413Z,1016.73
2022-11-28T03:07:11.955Z,1016.83
2022-11-28T03:07:43.972Z,1016.83
2022-11-28T03:08:15.515Z,1017.03
2022-11-28T03:08:47.461Z,1017.03
2022-11-28T03:09:19.430Z,1016.73
2022-11-28T03:09:42.156Z,1016.93
2022-11-28T03:10:06.304Z,1016.93
2022-11-28T03:10:39.650Z,1016.93
2022-11-28T03:11:11.658Z,1017.03
2022-11-28T03:11:43.763Z,1017.03
2022-11-28T03:12:15.548Z,1016.83
2022-11-28T03:12:49.082Z,1016.73
2022-11-28T03:13:19.776Z,1016.73
2022-11-28T03:13:42.617Z,1016.73
2022-11-28T03:14:05.398Z,1016.73
2022-11-28T03:14:40.778Z,1016.73
2022-11-28T03:15:12.561Z,1016.73
2022-11-28T03:15:44.089Z,1016.73
2022-11-28T03:16:16.792Z,1017.03
2022-11-28T03:16:47.405Z,1017.03
2022-11-28T03:17:19.727Z,1016.83
2022-11-28T03:17:42.455Z,1016.73
2022-11-28T03:18:04.921Z,1016.73
2022-11-28T03:18:47.411Z,1017.03
2022-11-28T03:19:10.529Z,1017.03
2022-11-28T03:19:44.460Z,1017.03
2022-11-28T03:20:15.413Z,1016.83
2022-11-28T03:20:47.486Z,1016.83
2022-11-28T03:21:21.133Z,1016.83
2022-11-28T03:21:43.873Z,1016.83
2022-11-28T03:22:06.738Z,1016.83
2022-11-28T03:22:40.317Z,1016.83
2022-11-28T03:23:16.777Z,1016.83
2022-11-28T03:23:43.701Z,1016.83
2022-11-28T03:24:15.502Z,1016.93
2022-11-28T03:24:49.233Z,1016.93
2022-11-28T03:25:19.819Z,1016.83
2022-11-28T03:25:42.435Z,1016.73
2022-11-28T03:26:04.841Z,1016.73
2022-11-28T03:26:39.503Z,1016.73
2022-11-28T03:27:11.461Z,1016.63
2022-11-28T03:27:43.527Z,1016.63
2022-11-28T03:28:15.426Z,1016.73
2022-11-28T03:28:49.442Z,1016.73
2022-11-28T03:29:19.925Z,1016.63
2022-11-28T03:29:47.637Z,1016.73
2022-11-28T03:30:06.050Z,1016.73
2022-11-28T03:30:40.549Z,1016.73
2022-11-28T03:31:12.266Z,1016.63
2022-11-28T03:31:43.323Z,1016.63
2022-11-28T03:32:15.538Z,1016.63
2022-11-28T03:32:47.432Z,1016.63
2022-11-28T03:33:20.102Z,1016.73
2022-11-28T03:33:42.512Z,1016.52
2022-11-28T03:34:04.915Z,1016.52
2022-11-28T03:34:40.264Z,1016.52
2022-11-28T03:35:12.412Z,1016.63
2022-11-28T03:35:44.094Z,1016.63
2022-11-28T03:36:15.365Z,1016.63
2022-11-28T03:36:47.521Z,1016.63
2022-11-28T03:37:19.411Z,1016.73
2022-11-28T03:37:42.186Z,1016.52
2022-11-28T03:38:04.691Z,1016.52
2022-11-28T03:38:39.405Z,1016.52
2022-11-28T03:39:12.062Z,1016.42
2022-11-28T03:39:43.559Z,1016.42
2022-11-28T03:40:15.417Z,1016.52
2022-11-28T03:40:47.362Z,1016.52
2022-11-28T03:41:19.896Z,1016.63
2022-11-28T03:41:42.807Z,1016.63
2022-11-28T03:42:05.451Z,1016.63
2022-11-28T03:42:39.826Z,1016.63
2022-11-28T03:43:11.293Z,1016.42
2022-11-28T03:43:44.857Z,1016.52
2022-11-28T03:44:15.541Z,1016.52
2022-11-28T03:44:47.375Z,1016.52
2022-11-28T03:45:19.432Z,1016.42
2022-11-28T03:45:42.180Z,1016.42
2022-11-28T03:46:07.730Z,1016.42
2022-11-28T03:46:39.741Z,1016.42
2022-11-28T03:47:11.456Z,1016.52
2022-11-28T03:47:43.259Z,1016.52
2022-11-28T03:48:15.382Z,1016.32
2022-11-28T03:48:47.565Z,1016.32
2022-11-28T03:49:20.056Z,1016.22
2022-11-28T03:49:43.195Z,1016.63
2022-11-28T03:50:10.567Z,1016.63
2022-11-28T03:50:40.034Z,1016.63
2022-11-28T03:51:11.438Z,1016.32
2022-11-28T03:51:43.811Z,1016.32
2022-11-28T03:52:15.319Z,1016.32
2022-11-28T03:52:47.315Z,1016.32
2022-11-28T03:53:21.005Z,1016.52
2022-11-28T03:53:41.889Z,1016.32
2022-11-28T03:54:04.179Z,1016.32
2022-11-28T03:54:40.595Z,1016.32
2022-11-28T03:55:11.922Z,1016.22
2022-11-28T03:55:43.943Z,1016.22
2022-11-28T03:56:15.965Z,1016.42
2022-11-28T03:56:48.118Z,1016.42
2022-11-28T03:57:19.542Z,1016.42
2022-11-28T03:57:42.228Z,1016.32
2022-11-28T03:58:06.121Z,1016.32
2022-11-28T03:58:40.889Z,1016.22
2022-11-28T03:59:11.512Z,1016.22
2022-11-28T03:59:43.725Z,1016.22
2022-11-28T04:00:15.451Z,1016.42
2022-11-28T04:03:11.480Z,1016.22
2022-11-28T04:04:15.281Z,1016.22
2022-11-28T04:04:47.232Z,1016.22
2022-11-28T04:05:19.418Z,1016.32
2022-11-28T04:05:42.351Z,1016.32
2022-11-28T04:06:04.698Z,1016.32
2022-11-28T04:06:39.902Z,1016.32
2022-11-28T04:07:11.532Z,1016.32
2022-11-28T04:07:43.432Z,1016.32
2022-11-28T04:08:15.382Z,1016.22
2022-11-28T04:08:47.364Z,1016.22
2022-11-28T04:09:19.371Z,1016.42
2022-11-28T04:09:42.103Z,1016.42
2022-11-28T04:10:04.533Z,1016.42
2022-11-28T04:10:39.501Z,1016.42
2022-11-28T04:11:11.295Z,1016.22
2022-11-28T04:11:43.497Z,1016.22
2022-11-28T04:12:15.565Z,1016.52
2022-11-28T04:12:47.417Z,1016.52
2022-11-28T04:13:19.514Z,1016.32
2022-11-28T04:13:42.621Z,1016.22
2022-11-28T04:14:04.343Z,1016.22
2022-11-28T04:14:39.553Z,1016.22
2022-11-28T04:15:11.463Z,1016.22
2022-11-28T04:15:43.464Z,1016.22
2022-11-28T04:16:15.326Z,1016.32
2022-11-28T04:16:52.202Z,1016.32
2022-11-28T04:17:19.354Z,1016.32
2022-11-28T04:17:42.113Z,1016.22
2022-11-28T04:18:04.487Z,1016.22
2022-11-28T04:18:39.243Z,1016.22
2022-11-28T04:19:11.415Z,1016.42
2022-11-28T04:19:43.849Z,1016.42
2022-11-28T04:20:15.270Z,1016.42
2022-11-28T04:20:47.247Z,1016.42
2022-11-28T04:21:19.763Z,1016.42
2022-11-28T04:21:43.501Z,1016.52
2022-11-28T04:22:04.354Z,1016.52
2022-11-28T04:22:39.316Z,1016.52
2022-11-28T04:23:11.264Z,1016.32
2022-11-28T04:23:43.377Z,1016.32
2022-11-28T04:24:15.345Z,1016.12
2022-11-28T04:24:47.290Z,1016.12
2022-11-28T04:25:19.302Z,1016.52
2022-11-28T04:25:42.304Z,1016.22
2022-11-28T04:26:04.779Z,1016.22
2022-11-28T04:26:39.587Z,1016.22
2022-11-28T04:27:11.630Z,1016.32
2022-11-28T04:27:43.238Z,1016.32
2022-11-28T04:28:16.111Z,1016.42
2022-11-28T04:28:47.378Z,1016.42
2022-11-28T04:29:19.411Z,1016.32
2022-11-28T04:29:47.875Z,1016.52
2022-11-28T04:30:05.163Z,1016.52
2022-11-28T04:30:40.565Z,1016.52
2022-11-28T04:31:12.049Z,1016.32
2022-11-28T04:31:43.872Z,1016.32
2022-11-28T04:32:15.936Z,1016.22
2022-11-28T04:32:47.584Z,1016.22
2022-11-28T04:33:20.088Z,1016.32
2022-11-28T04:33:42.712Z,1016.12
2022-11-28T04:34:05.427Z,1016.12
2022-11-28T04:34:39.343Z,1016.12
2022-11-28T04:35:11.492Z,1016.42
2022-11-28T04:35:43.276Z,1016.42
2022-11-28T04:36:15.545Z,1016.02
2022-11-28T04:36:47.323Z,1016.02
2022-11-28T04:37:19.645Z,1016.22
2022-11-28T04:37:42.356Z,1016.32
2022-11-28T04:38:04.662Z,1016.32
2022-11-28T04:38:39.514Z,1016.32
2022-11-28T04:39:11.372Z,1016.32
2022-11-28T04:39:43.661Z,1016.32
2022-11-28T04:40:15.362Z,1016.32
2022-11-28T04:40:49.617Z,1016.32
2022-11-28T04:41:19.611Z,1016.22
2022-11-28T04:41:42.340Z,1016.32
2022-11-28T04:42:05.942Z,1016.32
2022-11-28T04:42:40.286Z,1016.32
2022-11-28T04:43:11.300Z,1016.22
2022-11-28T04:43:43.741Z,1016.22
2022-11-28T04:44:16.239Z,1016.52
2022-11-28T04:44:47.303Z,1016.52
2022-11-28T04:45:19.580Z,1016.12
2022-11-28T04:45:42.263Z,1016.32
2022-11-28T04:46:04.800Z,1016.32
2022-11-28T04:46:39.383Z,1016.32
2022-11-28T04:47:11.937Z,1016.32
2022-11-28T04:47:44.527Z,1016.32
2022-11-28T04:48:15.157Z,1016.22
2022-11-28T04:48:48.630Z,1016.22
2022-11-28T04:49:19.448Z,1016.32
2022-11-28T04:49:42.206Z,1016.42
2022-11-28T04:50:04.635Z,1016.42
2022-11-28T04:50:39.218Z,1016.42
2022-11-28T04:51:12.229Z,1016.32
2022-11-28T04:51:43.837Z,1016.32
2022-11-28T04:52:17.614Z,1016.32
2022-11-28T04:52:47.825Z,1016.32
2022-11-28T04:53:21.018Z,1016.32
2022-11-28T04:53:43.777Z,1016.42
2022-11-28T04:54:06.198Z,1016.42
2022-11-28T04:54:39.942Z,1016.42
2022-11-28T04:55:11.742Z,1016.32
2022-11-28T04:55:45.671Z,1016.42
2022-11-28T04:56:15.437Z,1016.42
2022-11-28T04:56:48.305Z,1016.42
2022-11-28T04:57:19.421Z,1016.22
2022-11-28T04:57:42.424Z,1016.42
2022-11-28T04:58:04.928Z,1016.42
2022-11-28T04:58:39.719Z,1016.42
2022-11-28T04:59:11.287Z,1016.42
2022-11-28T04:59:44.007Z,1016.42
2022-11-28T05:00:15.912Z,1016.52
2022-11-28T05:00:48.868Z,1016.52
2022-11-28T05:01:19.515Z,1016.32
2022-11-28T05:01:42.208Z,1016.42
2022-11-28T05:02:04.626Z,1016.42
2022-11-28T05:02:42.459Z,1016.42
2022-11-28T05:03:11.305Z,1016.32
2022-11-28T05:03:45.690Z,1016.22
2022-11-28T05:04:15.315Z,1016.22
2022-11-28T05:04:47.835Z,1016.22
2022-11-28T05:05:19.184Z,1016.12
2022-11-28T05:05:42.039Z,1016.42
2022-11-28T05:06:04.509Z,1016.42
2022-11-28T05:06:39.320Z,1016.42
2022-11-28T05:07:12.086Z,1016.22
2022-11-28T05:07:43.411Z,1016.22
2022-11-28T05:08:15.908Z,1016.32
2022-11-28T05:08:47.419Z,1016.32
2022-11-28T05:09:20.501Z,1016.52
2022-11-28T05:09:43.175Z,1016.22
2022-11-28T05:10:05.516Z,1016.22
2022-11-28T05:10:40.362Z,1016.22
2022-11-28T05:11:11.438Z,1016.12
2022-11-28T05:11:44.136Z,1016.12
2022-11-28T05:12:15.662Z,1016.12
2022-11-28T05:12:48.251Z,1016.12
2022-11-28T05:13:19.714Z,1016.42
2022-11-28T05:13:42.424Z,1016.22
2022-11-28T05:14:05.162Z,1016.22
2022-11-28T05:14:40.279Z,1016.22
2022-11-28T05:15:11.755Z,1016.02
2022-11-28T05:15:43.426Z,1016.02
2022-11-28T05:16:15.773Z,1016.22
2022-11-28T05:16:47.607Z,1016.22
2022-11-28T05:17:19.520Z,1016.22
2022-11-28T05:17:42.700Z,1016.32
2022-11-28T05:18:04.602Z,1016.32
2022-11-28T05:18:39.490Z,1016.32
2022-11-28T05:19:11.994Z,1016.22
2022-11-28T05:19:44.138Z,1016.22
2022-11-28T05:20:15.287Z,1016.32
2022-11-28T05:20:50.599Z,1016.32
2022-11-28T05:21:19.655Z,1016.32
2022-11-28T05:21:42.359Z,1016.22
2022-11-28T05:22:05.461Z,1016.22
2022-11-28T05:22:39.872Z,1016.22
2022-11-28T05:23:13.295Z,1016.32
2022-11-28T05:23:43.350Z,1016.32
2022-11-28T05:24:17.191Z,1016.32
2022-11-28T05:24:47.341Z,1016.32
2022-11-28T05:25:19.448Z,1016.32
2022-11-28T05:25:42.155Z,1016.32
2022-11-28T05:26:04.452Z,1016.32
2022-11-28T05:26:39.340Z,1016.32
2022-11-28T05:27:11.875Z,1016.32
2022-11-28T05:27:43.826Z,1016.32
2022-11-28T05:28:15.315Z,1016.42
2022-11-28T05:28:47.393Z,1016.42
2022-11-28T05:29:19.831Z,1016.12
2022-11-28T05:29:42.573Z,1016.32
2022-11-28T05:30:05.814Z,1016.32
2022-11-28T05:30:39.449Z,1016.32
2022-11-28T05:31:12.132Z,1016.32
2022-11-28T05:31:43.701Z,1016.32
2022-11-28T05:32:15.987Z,1016.42
2022-11-28T05:32:47.598Z,1016.42
2022-11-28T05:33:19.759Z,1016.42
2022-11-28T05:33:42.441Z,1016.52
2022-11-28T05:34:05.156Z,1016.52
2022-11-28T05:34:40.478Z,1016.52
2022-11-28T05:35:11.180Z,1016.52
2022-11-28T05:35:43.830Z,1016.52
2022-11-28T05:36:15.398Z,1016.42
2022-11-28T05:36:47.355Z,1016.42
2022-11-28T05:37:19.262Z,1016.42
2022-11-28T05:37:42.063Z,1016.42
2022-11-28T05:38:07.202Z,1016.42
2022-11-28T05:38:39.231Z,1016.42
2022-11-28T05:39:16.007Z,1016.52
2022-11-28T05:39:38.629Z,1016.52
2022-11-28T05:40:19.104Z,1016.42
2022-11-28T05:40:47.326Z,1016.42
2022-11-28T05:41:19.548Z,1016.52
2022-11-28T05:41:45.151Z,1016.42
2022-11-28T05:42:23.204Z,1016.42
2022-11-28T05:42:45.995Z,1016.63
2022-11-28T05:43:08.440Z,1016.63
2022-11-28T05:43:43.360Z,1016.63
2022-11-28T05:44:15.232Z,1016.52
2022-11-28T05:44:47.412Z,1016.52
2022-11-28T05:45:19.268Z,1016.52
2022-11-28T05:45:41.979Z,1016.63
2022-11-28T05:46:04.291Z,1016.63
2022-11-28T05:46:39.771Z,1016.63
2022-11-28T05:47:11.308Z,1016.52
2022-11-28T05:47:43.614Z,1016.52
2022-11-28T05:48:15.246Z,1016.63
2022-11-28T05:48:47.251Z,1016.63
2022-11-28T05:49:19.163Z,1016.52
2022-11-28T05:49:42.306Z,1016.32
2022-11-28T05:50:04.156Z,1016.32
2022-11-28T05:50:40.081Z,1016.32
2022-11-28T05:51:11.309Z,1016.42
2022-11-28T05:51:43.825Z,1016.42
2022-11-28T05:52:15.269Z,1016.52
2022-11-28T05:52:47.404Z,1016.52
2022-11-28T05:53:20.076Z,1016.73
2022-11-28T05:53:42.541Z,1016.63
2022-11-28T05:54:04.839Z,1016.63
2022-11-28T05:54:39.652Z,1016.63
2022-11-28T05:55:11.823Z,1016.73
2022-11-28T05:55:43.415Z,1016.73
2022-11-28T05:56:15.527Z,1016.52
2022-11-28T05:56:47.226Z,1016.52
2022-11-28T05:57:19.290Z,1016.93
2022-11-28T05:57:42.809Z,1016.52
2022-11-28T05:58:05.096Z,1016.52
2022-11-28T05:58:39.258Z,1016.52
2022-11-28T05:59:11.171Z,1016.73
2022-11-28T05:59:43.513Z,1016.73
2022-11-28T06:00:15.366Z,1016.63
2022-11-28T06:00:47.260Z,1016.63
2022-11-28T06:01:19.390Z,1016.42
2022-11-28T06:01:45.379Z,1016.42
2022-11-28T06:02:05.211Z,1016.42
2022-11-28T06:02:42.808Z,1016.42
2022-11-28T06:03:11.162Z,1016.63
2022-11-28T06:03:43.663Z,1016.63
2022-11-28T06:04:15.215Z,1016.63
2022-11-28T06:04:47.571Z,1016.63
2022-11-28T06:05:41.135Z,1016.42
2022-11-28T06:05:51.235Z,1016.63